createdAt,value
2018-09-01T00:02:00.583Z,19.93
2018-09-01T00:04:29.492Z,17.83
2018-09-01T00:06:58.088Z,23.57
2018-09-01T00:09:26.576Z,18.00
2018-09-01T00:11:55.154Z,19.57
2018-09-01T00:14:23.758Z,20.63
2018-09-01T00:16:52.326Z,16.93
2018-09-01T00:19:20.963Z,17.90
2018-09-01T00:21:49.667Z,16.93
2018-09-01T00:24:18.289Z,19.03
2018-09-01T00:26:46.863Z,16.77
2018-09-01T00:29:15.467Z,16.77
2018-09-01T00:31:44.074Z,19.13
2018-09-01T00:34:12.744Z,17.07
2018-09-01T00:36:41.295Z,17.67
2018-09-01T00:39:09.908Z,17.67
2018-09-01T00:41:38.515Z,20.27
2018-09-01T00:44:07.175Z,19.73
2018-09-01T00:46:35.723Z,18.60
2018-09-01T00:49:04.310Z,19.63
2018-09-01T00:51:32.855Z,19.83
2018-09-01T00:54:01.588Z,17.17
2018-09-01T00:56:30.128Z,17.37
2018-09-01T00:58:58.618Z,18.73
2018-09-01T01:01:27.201Z,18.63
2018-09-01T01:03:55.831Z,18.40
2018-09-01T01:06:24.367Z,18.30
2018-09-01T01:08:52.944Z,20.17
2018-09-01T01:11:21.479Z,19.47
2018-09-01T01:13:50.072Z,18.97
2018-09-01T01:16:19.056Z,20.30
2018-09-01T01:18:48.222Z,18.43
2018-09-01T01:21:16.756Z,18.20
2018-09-01T01:23:45.264Z,18.57
2018-09-01T01:26:13.943Z,19.43
2018-09-01T01:28:42.529Z,23.13
2018-09-01T01:31:11.040Z,20.03
2018-09-01T01:33:39.675Z,19.00
2018-09-01T01:36:08.278Z,18.03
2018-09-01T01:38:36.945Z,21.33
2018-09-01T01:41:05.652Z,20.63
2018-09-01T01:43:34.199Z,20.67
2018-09-01T01:46:02.697Z,22.00
2018-09-01T01:48:31.232Z,20.20
2018-09-01T01:50:59.807Z,22.37
2018-09-01T01:53:28.386Z,21.13
2018-09-01T01:56:02.139Z,22.03
2018-09-01T01:58:30.713Z,18.60
2018-09-01T02:01:00.183Z,18.17
2018-09-01T02:03:28.773Z,20.60
2018-09-01T02:05:57.315Z,19.13
2018-09-01T02:08:25.879Z,19.70
2018-09-01T02:10:54.439Z,18.07
2018-09-01T02:13:22.981Z,19.87
2018-09-01T02:15:51.632Z,20.93
2018-09-01T02:18:20.123Z,19.07
2018-09-01T02:20:48.655Z,18.53
2018-09-01T02:23:17.224Z,19.23
2018-09-01T02:25:45.817Z,17.23
2018-09-01T02:28:14.361Z,18.37
2018-09-01T02:30:42.922Z,16.67
2018-09-01T02:33:11.506Z,19.17
2018-09-01T02:35:40.107Z,17.47
2018-09-01T02:38:08.631Z,17.27
2018-09-01T02:40:37.231Z,15.97
2018-09-01T02:43:05.996Z,14.90
2018-09-01T02:45:34.553Z,15.23
2018-09-01T02:48:03.113Z,16.00
2018-09-01T02:50:31.703Z,16.23
2018-09-01T02:53:00.206Z,14.13
2018-09-01T02:55:29.067Z,13.43
2018-09-01T02:57:57.632Z,13.83
2018-09-01T03:00:31.436Z,13.93
2018-09-01T03:02:59.996Z,13.70
2018-09-01T03:05:28.541Z,15.10
2018-09-01T03:07:57.172Z,15.07
2018-09-01T03:10:25.710Z,16.33
2018-09-01T03:12:54.393Z,14.30
2018-09-01T03:15:23.134Z,20.00
2018-09-01T03:17:51.649Z,14.90
2018-09-01T03:20:20.232Z,16.50
2018-09-01T03:22:48.748Z,16.80
2018-09-01T03:25:17.634Z,18.73
2018-09-01T03:27:46.154Z,17.47
2018-09-01T03:30:14.658Z,17.83
2018-09-01T03:32:43.224Z,18.13
2018-09-01T03:35:12.006Z,16.27
2018-09-01T03:37:40.563Z,18.43
2018-09-01T03:40:09.080Z,14.30
2018-09-01T03:42:37.779Z,18.43
2018-09-01T03:45:07.387Z,16.77
2018-09-01T03:47:35.963Z,16.23
2018-09-01T03:50:04.613Z,15.97
2018-09-01T03:52:33.225Z,16.77
2018-09-01T03:55:01.799Z,16.47
2018-09-01T03:57:30.528Z,17.77
2018-09-01T04:00:00.160Z,14.83
2018-09-01T04:02:29.335Z,16.30
2018-09-01T04:04:58.243Z,15.47
2018-09-01T04:07:26.786Z,16.63
2018-09-01T04:09:55.366Z,16.37
2018-09-01T04:12:23.849Z,17.80
2018-09-01T04:14:52.476Z,17.07
2018-09-01T04:17:21.061Z,16.53
2018-09-01T04:19:49.578Z,17.07
2018-09-01T04:22:18.161Z,15.17
2018-09-01T04:24:46.997Z,15.43
2018-09-01T04:27:15.555Z,13.80
2018-09-01T04:29:44.041Z,14.33
2018-09-01T04:32:13.322Z,15.53
2018-09-01T04:34:41.833Z,15.87
2018-09-01T04:37:10.453Z,16.17
2018-09-01T04:39:39.752Z,13.43
2018-09-01T04:42:08.381Z,14.27
2018-09-01T04:44:37.064Z,13.87
2018-09-01T04:47:05.980Z,15.60
2018-09-01T04:49:34.635Z,15.90
2018-09-01T04:52:03.245Z,17.73
2018-09-01T04:54:32.111Z,14.47
2018-09-01T04:57:01.008Z,14.43
2018-09-01T04:59:29.541Z,13.47
2018-09-01T05:01:58.142Z,14.50
2018-09-01T05:04:27.714Z,13.77
2018-09-01T05:06:56.264Z,12.40
2018-09-01T05:09:25.307Z,12.63
2018-09-01T05:11:53.869Z,12.60
2018-09-01T05:14:22.584Z,14.93
2018-09-01T05:16:51.494Z,12.03
2018-09-01T05:19:20.109Z,12.67
2018-09-01T05:21:48.743Z,18.27
2018-09-01T05:24:18.434Z,14.93
2018-09-01T05:26:47.210Z,13.97
2018-09-01T05:29:15.990Z,14.93
2018-09-01T05:31:44.927Z,14.90
2018-09-01T05:34:13.588Z,14.23
2018-09-01T05:36:42.301Z,16.20
2018-09-01T05:39:10.831Z,16.00
2018-09-01T05:41:39.631Z,15.40
2018-09-01T05:44:08.156Z,17.17
2018-09-01T05:46:36.757Z,14.77
2018-09-01T05:49:05.267Z,15.10
2018-09-01T05:51:33.763Z,15.97
2018-09-01T05:54:02.262Z,19.47
2018-09-01T05:56:31.102Z,14.90
2018-09-01T05:58:59.638Z,17.60
2018-09-01T06:01:28.244Z,16.43
2018-09-01T06:03:56.875Z,15.10
2018-09-01T06:06:25.610Z,17.70
2018-09-01T06:08:54.083Z,15.90
2018-09-01T06:11:22.903Z,14.23
2018-09-01T06:13:51.490Z,14.53
2018-09-01T06:16:20.491Z,13.53
2018-09-01T06:18:49.168Z,13.30
2018-09-01T06:21:17.735Z,15.10
2018-09-01T06:23:46.382Z,13.27
2018-09-01T06:26:14.940Z,14.33
2018-09-01T06:28:46.162Z,12.00
2018-09-01T06:31:15.380Z,14.30
2018-09-01T06:33:43.899Z,14.63
2018-09-01T06:36:12.610Z,11.93
2018-09-01T06:38:41.202Z,11.33
2018-09-01T06:41:09.771Z,10.87
2018-09-01T06:43:38.375Z,16.00
2018-09-01T06:46:07.053Z,12.50
2018-09-01T06:48:35.651Z,12.70
2018-09-01T06:51:04.229Z,14.50
2018-09-01T06:53:32.776Z,13.27
2018-09-01T06:56:01.502Z,14.00
2018-09-01T06:58:30.051Z,12.70
2018-09-01T07:00:58.591Z,14.20
2018-09-01T07:03:27.243Z,11.50
2018-09-01T07:05:55.763Z,12.33
2018-09-01T07:08:24.346Z,9.80
2018-09-01T07:10:52.899Z,12.90
2018-09-01T07:13:21.493Z,9.47
2018-09-01T07:15:50.283Z,11.10
2018-09-01T07:18:18.965Z,12.67
2018-09-01T07:20:47.562Z,13.90
2018-09-01T07:23:16.113Z,13.40
2018-09-01T07:25:44.624Z,8.67
2018-09-01T07:28:13.161Z,11.73
2018-09-01T07:30:41.815Z,12.93
2018-09-01T07:33:10.324Z,12.87
2018-09-01T07:35:39.299Z,9.13
2018-09-01T07:38:08.081Z,9.73
2018-09-01T07:40:36.608Z,14.27
2018-09-01T07:43:05.087Z,8.57
2018-09-01T07:45:33.636Z,12.93
2018-09-01T07:48:02.312Z,11.27
2018-09-01T07:50:30.894Z,8.67
2018-09-01T07:52:59.440Z,7.80
2018-09-01T07:55:29.040Z,13.03
2018-09-01T07:57:57.697Z,9.67
2018-09-01T08:00:26.232Z,10.50
2018-09-01T08:02:54.840Z,8.67
2018-09-01T08:05:23.472Z,9.73
2018-09-01T08:07:52.093Z,11.97
2018-09-01T08:10:20.619Z,14.27
2018-09-01T08:12:49.250Z,9.40
2018-09-01T08:15:17.804Z,9.27
2018-09-01T08:17:46.539Z,7.97
2018-09-01T08:20:15.069Z,9.23
2018-09-01T08:22:43.692Z,13.00
2018-09-01T08:25:12.491Z,12.40
2018-09-01T08:27:41.356Z,10.43
2018-09-01T08:30:09.896Z,11.53
2018-09-01T08:32:38.380Z,9.93
2018-09-01T08:35:07.066Z,10.27
2018-09-01T08:37:35.679Z,10.57
2018-09-01T08:40:04.462Z,9.47
2018-09-01T08:42:33.543Z,12.53
2018-09-01T08:45:02.235Z,8.87
2018-09-01T08:47:31.129Z,14.10
2018-09-01T08:49:59.619Z,9.13
2018-09-01T08:52:28.298Z,9.77
2018-09-01T08:54:56.935Z,11.20
2018-09-01T08:57:25.555Z,12.73
2018-09-01T08:59:54.163Z,8.27
2018-09-01T09:02:22.930Z,9.73
2018-09-01T09:04:51.576Z,11.03
2018-09-01T09:07:20.919Z,8.93
2018-09-01T09:09:50.434Z,8.07
2018-09-01T09:12:19.625Z,11.13
2018-09-01T09:14:48.259Z,9.80
2018-09-01T09:17:17.479Z,7.77
2018-09-01T09:19:46.292Z,40.70
2018-09-01T09:22:16.005Z,22.20
2018-09-01T09:24:45.488Z,18.87
2018-09-01T09:27:14.347Z,9.13
2018-09-01T09:29:42.947Z,7.90
2018-09-01T09:32:11.470Z,7.60
2018-09-01T09:34:40.377Z,9.13
2018-09-01T09:37:09.169Z,8.03
2018-09-01T09:39:37.964Z,12.03
2018-09-01T09:42:06.633Z,7.33
2018-09-01T09:44:35.209Z,7.57
2018-09-01T09:47:03.995Z,7.90
2018-09-01T09:49:32.967Z,7.83
2018-09-01T09:52:02.355Z,6.63
2018-09-01T09:54:31.396Z,6.20
2018-09-01T09:57:00.381Z,9.17
2018-09-01T09:59:28.960Z,7.90
2018-09-01T10:02:01.167Z,8.60
2018-09-01T10:04:30.239Z,6.63
2018-09-01T10:06:58.858Z,6.07
2018-09-01T10:09:27.590Z,7.47
2018-09-01T10:11:56.287Z,10.33
2018-09-01T10:14:24.974Z,8.47
2018-09-01T10:16:53.680Z,9.47
2018-09-01T10:19:22.218Z,6.83
2018-09-01T10:21:50.779Z,7.43
2018-09-01T10:24:19.493Z,6.70
2018-09-01T10:26:48.158Z,8.50
2018-09-01T10:29:16.680Z,8.83
2018-09-01T10:31:45.390Z,10.90
2018-09-01T10:34:13.955Z,7.57
2018-09-01T10:36:43.108Z,5.20
2018-09-01T10:39:11.803Z,5.63
2018-09-01T10:41:40.444Z,5.70
2018-09-01T10:44:09.892Z,9.50
2018-09-01T10:46:38.828Z,8.53
2018-09-01T10:49:07.407Z,6.20
2018-09-01T10:51:35.993Z,6.90
2018-09-01T10:54:04.675Z,4.60
2018-09-01T10:56:33.617Z,4.23
2018-09-01T10:59:02.470Z,6.10
2018-09-01T11:01:31.061Z,7.80
2018-09-01T11:03:59.744Z,5.57
2018-09-01T11:06:28.436Z,5.03
2018-09-01T11:08:57.018Z,10.33
2018-09-01T11:11:25.595Z,5.60
2018-09-01T11:13:54.271Z,6.27
2018-09-01T11:16:22.921Z,6.03
2018-09-01T11:18:51.568Z,9.10
2018-09-01T11:21:20.129Z,4.70
2018-09-01T11:23:48.789Z,3.93
2018-09-01T11:26:17.399Z,6.07
2018-09-01T11:28:46.521Z,4.07
2018-09-01T11:31:15.128Z,5.73
2018-09-01T11:33:44.100Z,5.87
2018-09-01T11:36:13.731Z,5.27
2018-09-01T11:38:42.439Z,6.67
2018-09-01T11:41:11.055Z,7.23
2018-09-01T11:43:39.652Z,3.17
2018-09-01T11:46:08.327Z,5.63
2018-09-01T11:48:37.524Z,7.50
2018-09-01T11:51:06.114Z,6.40
2018-09-01T11:53:34.864Z,6.20
2018-09-01T11:56:03.465Z,6.73
2018-09-01T11:58:32.284Z,6.97
2018-09-01T12:01:00.880Z,4.63
2018-09-01T12:03:29.436Z,6.57
2018-09-01T12:05:58.044Z,7.27
2018-09-01T12:08:26.648Z,3.13
2018-09-01T12:10:55.269Z,6.30
2018-09-01T12:13:23.882Z,4.30
2018-09-01T12:15:52.745Z,4.20
2018-09-01T12:18:21.440Z,6.10
2018-09-01T12:20:50.218Z,5.27
2018-09-01T12:23:18.947Z,5.80
2018-09-01T12:25:47.555Z,6.03
2018-09-01T12:28:16.172Z,8.43
2018-09-01T12:30:44.652Z,3.83
2018-09-01T12:33:13.285Z,5.53
2018-09-01T12:35:41.936Z,5.87
2018-09-01T12:38:10.625Z,7.33
2018-09-01T12:40:39.227Z,4.30
2018-09-01T12:43:07.879Z,5.63
2018-09-01T12:45:36.867Z,7.80
2018-09-01T12:48:05.516Z,2.90
2018-09-01T12:50:34.183Z,4.97
2018-09-01T12:53:02.772Z,6.47
2018-09-01T12:55:31.451Z,5.47
2018-09-01T12:58:00.339Z,11.60
2018-09-01T13:00:28.969Z,4.67
2018-09-01T13:02:57.639Z,10.10
2018-09-01T13:05:26.274Z,4.17
2018-09-01T13:07:55.495Z,8.47
2018-09-01T13:10:24.085Z,7.53
2018-09-01T13:12:52.583Z,4.77
2018-09-01T13:15:21.257Z,6.10
2018-09-01T13:17:49.846Z,2.67
2018-09-01T13:20:18.392Z,8.90
2018-09-01T13:22:47.017Z,7.00
2018-09-01T13:25:15.703Z,8.33
2018-09-01T13:27:44.247Z,5.67
2018-09-01T13:30:13.019Z,5.20
2018-09-01T13:32:41.607Z,2.40
2018-09-01T13:35:10.639Z,5.97
2018-09-01T13:37:39.340Z,4.23
2018-09-01T13:40:08.099Z,6.67
2018-09-01T13:42:36.690Z,3.23
2018-09-01T13:45:05.959Z,4.87
2018-09-01T13:47:34.667Z,2.10
2018-09-01T13:50:03.367Z,4.23
2018-09-01T13:52:31.999Z,4.60
2018-09-01T13:55:01.352Z,6.20
2018-09-01T13:57:30.174Z,2.67
2018-09-01T13:59:59.552Z,9.77
2018-09-01T14:02:28.153Z,6.10
2018-09-01T14:04:56.717Z,3.03
2018-09-01T14:07:25.358Z,5.13
2018-09-01T14:09:54.123Z,5.60
2018-09-01T14:12:23.187Z,5.40
2018-09-01T14:14:51.873Z,5.17
2018-09-01T14:17:20.649Z,3.33
2018-09-01T14:19:49.575Z,4.77
2018-09-01T14:22:18.427Z,6.53
2018-09-01T14:24:46.968Z,7.23
2018-09-01T14:27:15.819Z,6.10
2018-09-01T14:29:44.512Z,3.67
2018-09-01T14:32:13.130Z,8.70
2018-09-01T14:34:41.867Z,3.60
2018-09-01T14:37:10.457Z,5.47
2018-09-01T14:39:39.043Z,5.57
2018-09-01T14:42:07.644Z,3.73
2018-09-01T14:44:36.211Z,4.83
2018-09-01T14:47:05.184Z,3.97
2018-09-01T14:49:34.152Z,2.00
2018-09-01T14:52:03.797Z,5.87
2018-09-01T14:54:32.371Z,3.77
2018-09-01T14:57:00.927Z,5.20
2018-09-01T14:59:29.513Z,11.17
2018-09-01T15:01:58.097Z,3.73
2018-09-01T15:04:27.343Z,4.40
2018-09-01T15:06:56.069Z,7.33
2018-09-01T15:09:24.995Z,2.63
2018-09-01T15:11:53.885Z,3.90
2018-09-01T15:14:22.503Z,5.17
2018-09-01T15:16:51.086Z,4.30
2018-09-01T15:19:19.630Z,3.53
2018-09-01T15:21:48.301Z,3.63
2018-09-01T15:24:16.910Z,5.23
2018-09-01T15:26:45.423Z,12.03
2018-09-01T15:29:14.326Z,6.57
2018-09-01T15:31:42.900Z,7.27
2018-09-01T15:34:11.401Z,6.27
2018-09-01T15:36:39.918Z,3.73
2018-09-01T15:39:08.867Z,6.77
2018-09-01T15:41:37.656Z,4.67
2018-09-01T15:44:08.193Z,8.63
2018-09-01T15:46:37.103Z,5.07
2018-09-01T15:49:06.314Z,4.60
2018-09-01T15:51:35.109Z,5.23
2018-09-01T15:54:03.665Z,8.77
2018-09-01T15:56:32.361Z,7.47
2018-09-01T15:59:01.324Z,6.07
2018-09-01T16:01:29.878Z,4.10
2018-09-01T16:03:58.707Z,2.63
2018-09-01T16:06:27.376Z,5.60
2018-09-01T16:08:55.971Z,8.67
2018-09-01T16:11:24.612Z,5.20
2018-09-01T16:13:53.671Z,6.17
2018-09-01T16:16:22.551Z,6.27
2018-09-01T16:18:51.628Z,3.53
2018-09-01T16:21:20.668Z,4.17
2018-09-01T16:23:49.353Z,8.50
2018-09-01T16:26:18.936Z,3.57
2018-09-01T16:28:47.674Z,5.90
2018-09-01T16:31:16.512Z,8.90
2018-09-01T16:33:45.068Z,3.53
2018-09-01T16:36:14.300Z,7.43
2018-09-01T16:38:48.924Z,4.90
2018-09-01T16:41:17.547Z,6.97
2018-09-01T16:46:22.383Z,4.30
2018-09-01T16:48:51.615Z,6.47
2018-09-01T16:51:20.135Z,5.20
2018-09-01T16:53:48.724Z,5.73
2018-09-01T16:56:17.446Z,5.90
2018-09-01T16:58:46.302Z,4.93
2018-09-01T17:01:15.538Z,5.27
2018-09-01T17:03:44.246Z,8.13
2018-09-01T17:06:14.277Z,5.63
2018-09-01T17:08:42.923Z,5.10
2018-09-01T17:11:11.471Z,5.00
2018-09-01T17:13:40.145Z,3.27
2018-09-01T17:16:08.768Z,5.10
2018-09-01T17:18:37.327Z,9.77
2018-09-01T17:21:05.951Z,3.73
2018-09-01T17:23:34.552Z,8.07
2018-09-01T17:26:03.176Z,3.93
2018-09-01T17:28:32.040Z,5.23
2018-09-01T17:31:00.644Z,4.43
2018-09-01T17:33:29.336Z,11.00
2018-09-01T17:35:57.915Z,8.23
2018-09-01T17:38:26.629Z,5.23
2018-09-01T17:40:55.457Z,4.80
2018-09-01T17:43:24.091Z,5.20
2018-09-01T17:45:52.624Z,8.47
2018-09-01T17:48:21.281Z,3.00
2018-09-01T17:50:50.105Z,6.20
2018-09-01T17:53:18.614Z,6.10
2018-09-01T17:55:47.198Z,2.60
2018-09-01T17:58:15.739Z,5.90
2018-09-01T18:00:44.366Z,5.73
2018-09-01T18:03:12.871Z,7.70
2018-09-01T18:05:41.370Z,12.73
2018-09-01T18:08:09.920Z,5.97
2018-09-01T18:10:38.627Z,7.23
2018-09-01T18:13:07.158Z,8.27
2018-09-01T18:15:35.693Z,6.30
2018-09-01T18:18:05.298Z,5.17
2018-09-01T18:20:34.172Z,4.60
2018-09-01T18:23:02.830Z,7.97
2018-09-01T18:25:31.276Z,3.53
2018-09-01T18:27:59.821Z,7.40
2018-09-01T18:30:28.371Z,7.77
2018-09-01T18:32:56.854Z,5.43
2018-09-01T18:35:25.776Z,8.27
2018-09-01T18:37:54.277Z,5.23
2018-09-01T18:40:23.047Z,7.83
2018-09-01T18:42:51.677Z,6.30
2018-09-01T18:45:20.281Z,5.90
2018-09-01T18:47:49.497Z,8.87
2018-09-01T18:50:18.044Z,5.20
2018-09-01T18:52:46.626Z,7.57
2018-09-01T18:55:15.191Z,4.37
2018-09-01T18:57:43.832Z,4.13
2018-09-01T19:00:12.602Z,7.73
2018-09-01T19:02:41.196Z,4.80
2018-09-01T19:05:09.828Z,8.57
2018-09-01T19:07:38.372Z,3.80
2018-09-01T19:10:06.943Z,6.27
2018-09-01T19:12:35.445Z,5.93
2018-09-01T19:15:04.048Z,5.07
2018-09-01T19:17:32.655Z,5.17
2018-09-01T19:20:01.387Z,7.20
2018-09-01T19:22:30.427Z,8.23
2018-09-01T19:24:59.718Z,5.47
2018-09-01T19:27:28.731Z,3.87
2018-09-01T19:29:58.495Z,7.90
2018-09-01T19:32:27.016Z,5.77
2018-09-01T19:34:55.780Z,5.77
2018-09-01T19:37:24.645Z,7.10
2018-09-01T19:39:54.186Z,20.03
2018-09-01T19:42:22.787Z,6.43
2018-09-01T19:44:51.600Z,8.13
2018-09-01T19:47:20.128Z,9.70
2018-09-01T19:49:48.658Z,4.77
2018-09-01T19:52:17.445Z,7.00
2018-09-01T19:54:45.983Z,12.10
2018-09-01T19:57:14.862Z,8.77
2018-09-01T19:59:44.583Z,6.87
2018-09-01T20:02:13.157Z,6.00
2018-09-01T20:04:41.735Z,5.80
2018-09-01T20:07:11.187Z,7.70
2018-09-01T20:09:40.276Z,5.30
2018-09-01T20:12:08.866Z,5.83
2018-09-01T20:14:38.386Z,8.40
2018-09-01T20:17:07.081Z,8.43
2018-09-01T20:19:41.396Z,5.70
2018-09-01T20:22:11.295Z,5.40
2018-09-01T20:24:40.149Z,9.20
2018-09-01T20:27:09.033Z,5.10
2018-09-01T20:29:38.088Z,9.67
2018-09-01T20:32:07.055Z,7.37
2018-09-01T20:34:39.961Z,8.23
2018-09-01T20:37:08.753Z,4.73
2018-09-01T20:39:38.352Z,8.87
2018-09-01T20:42:07.720Z,6.67
2018-09-01T20:44:36.636Z,5.27
2018-09-01T20:47:05.638Z,4.33
2018-09-01T20:49:42.682Z,5.13
2018-09-01T20:52:20.140Z,7.90
2018-09-01T20:54:56.074Z,5.73
2018-09-01T20:57:28.482Z,7.83
2018-09-01T21:00:00.522Z,11.43
2018-09-01T21:02:32.198Z,8.80
2018-09-01T21:05:05.932Z,5.50
2018-09-01T21:07:34.574Z,9.20
2018-09-01T21:10:03.175Z,5.37
2018-09-01T21:12:31.746Z,11.27
2018-09-01T21:15:00.357Z,7.47
2018-09-01T21:17:29.367Z,8.10
2018-09-01T21:19:58.246Z,6.77
2018-09-01T21:22:27.099Z,8.60
2018-09-01T21:24:56.081Z,7.80
2018-09-01T21:27:24.727Z,7.50
2018-09-01T21:29:53.855Z,6.50
2018-09-01T21:32:22.513Z,7.83
2018-09-01T21:34:51.039Z,6.03
2018-09-01T21:37:20.011Z,5.40
2018-09-01T21:39:49.266Z,5.80
2018-09-01T21:42:17.862Z,5.23
2018-09-01T21:44:46.534Z,5.70
2018-09-01T21:47:15.121Z,5.03
2018-09-01T21:49:43.721Z,5.80
2018-09-01T21:52:12.377Z,5.00
2018-09-01T21:54:40.923Z,5.93
2018-09-01T21:57:09.669Z,7.63
2018-09-01T21:59:38.557Z,8.87
2018-09-01T22:02:12.815Z,6.90
2018-09-01T22:04:46.518Z,10.73
2018-09-01T22:07:15.158Z,6.57
2018-09-01T22:09:44.020Z,7.63
2018-09-01T22:12:12.576Z,6.30
2018-09-01T22:14:41.927Z,6.70
2018-09-01T22:17:10.740Z,5.60
2018-09-01T22:19:39.337Z,5.13
2018-09-01T22:22:08.266Z,5.57
2018-09-01T22:24:36.844Z,7.37
2018-09-01T22:27:05.671Z,8.23
2018-09-01T22:29:34.381Z,6.93
2018-09-01T22:32:03.008Z,5.00
2018-09-01T22:34:31.545Z,6.10
2018-09-01T22:37:00.472Z,4.03
2018-09-01T22:39:29.036Z,9.13
2018-09-01T22:41:57.778Z,6.93
2018-09-01T22:44:26.428Z,5.70
2018-09-01T22:46:55.995Z,7.70
2018-09-01T22:49:24.569Z,9.87
2018-09-01T22:51:53.641Z,4.70
2018-09-01T22:54:22.312Z,4.73
2018-09-01T22:56:50.997Z,6.93
2018-09-01T22:59:19.663Z,7.80
2018-09-01T23:01:48.463Z,9.20
2018-09-01T23:04:16.995Z,5.90
2018-09-01T23:06:45.513Z,3.73
2018-09-01T23:09:14.108Z,4.83
2018-09-01T23:11:42.608Z,5.57
2018-09-01T23:14:11.159Z,5.10
2018-09-01T23:16:39.703Z,7.07
2018-09-01T23:19:08.332Z,6.83
2018-09-01T23:21:37.187Z,6.27
2018-09-01T23:24:05.746Z,7.40
2018-09-01T23:26:34.395Z,6.57
2018-09-01T23:29:03.284Z,6.40
2018-09-01T23:31:32.301Z,5.10
2018-09-01T23:34:00.839Z,4.63
2018-09-01T23:36:29.420Z,10.67
2018-09-01T23:38:58.356Z,3.30
2018-09-01T23:41:27.012Z,5.93
2018-09-01T23:43:55.735Z,4.80
2018-09-01T23:46:24.389Z,4.60
2018-09-01T23:48:53.100Z,7.80
2018-09-01T23:51:21.950Z,5.70
2018-09-01T23:53:50.487Z,8.67
2018-09-01T23:56:19.076Z,7.97
2018-09-01T23:58:47.642Z,7.00
